首页
METAR-TAF:

METAR-TAF

机场 :

空军基地

Meppen, 德国

纬度: 52-43-24N, 经度: 007-19-35E, 海拔: 21米

当前天气观测

该预报发布于55分钟前的02:20 UTC
风速2节,风向多变
温度 3°C
湿度 87%
气压 1012 hPa

METAR: ETWM 170220Z AUTO VRB02KT //// // ////// 03/01 Q1012 ///

时间: 04:15 (03:15 UTC)


TAF: 丢失

超过4000个机场的气象观测和天气预报(METAR&TAF报告)。

可查询的气象台以黄色和红色小点在地图上表示。

将鼠标移到小点上方,可查看气象台名称。

然后点击查看天气观测和预报。

如需切换地图:点击带黑十字的绿色按钮放大地图;点击带横线的绿色按钮缩小地图;或者点击绿色箭头查看邻近地区的地图。


METAR-TAF: